createdAt,value
2018-02-14T00:00:22.008Z,1.70
2018-02-14T00:02:48.188Z,2.00
2018-02-14T00:05:14.363Z,3.07
2018-02-14T00:07:41.046Z,1.37
2018-02-14T00:10:07.215Z,1.80
2018-02-14T00:12:33.376Z,1.60
2018-02-14T00:14:59.806Z,1.50
2018-02-14T00:17:26.008Z,1.60
2018-02-14T00:19:52.176Z,1.63
2018-02-14T00:22:18.370Z,1.80
2018-02-14T00:24:44.598Z,1.60
2018-02-14T00:27:11.034Z,1.60
2018-02-14T00:29:37.234Z,1.80
2018-02-14T00:32:03.452Z,1.50
2018-02-14T00:34:29.865Z,1.50
2018-02-14T00:36:56.506Z,1.27
2018-02-14T00:39:22.993Z,1.60
2018-02-14T00:41:49.172Z,1.73
2018-02-14T00:44:15.824Z,1.30
2018-02-14T00:46:42.027Z,1.50
2018-02-14T00:49:08.188Z,1.40
2018-02-14T00:51:34.418Z,1.73
2018-02-14T00:54:00.975Z,1.63
2018-02-14T00:56:27.203Z,1.70
2018-02-14T00:58:53.644Z,1.80
2018-02-14T01:01:19.845Z,1.57
2018-02-14T01:03:46.486Z,1.37
2018-02-14T01:06:12.656Z,1.50
2018-02-14T01:08:38.873Z,1.53
2018-02-14T01:11:05.344Z,1.53
2018-02-14T01:13:31.516Z,1.87
2018-02-14T01:15:58.010Z,1.77
2018-02-14T01:18:24.314Z,1.80
2018-02-14T01:20:50.499Z,2.03
2018-02-14T01:23:16.674Z,1.43
2018-02-14T01:25:42.910Z,1.60
2018-02-14T01:28:09.061Z,1.43
2018-02-14T01:30:35.251Z,1.77
2018-02-14T01:33:01.469Z,1.73
2018-02-14T01:35:27.978Z,1.37
2018-02-14T01:37:54.230Z,1.67
2018-02-14T01:40:20.442Z,1.20
2018-02-14T01:42:46.641Z,1.80
2018-02-14T01:45:13.198Z,1.80
2018-02-14T01:47:39.380Z,1.53
2018-02-14T01:50:05.865Z,1.60
2018-02-14T01:52:32.461Z,1.50
2018-02-14T01:54:58.655Z,1.47
2018-02-14T01:57:24.828Z,1.70
2018-02-14T01:59:51.073Z,1.47
2018-02-14T02:02:18.494Z,1.80
2018-02-14T02:04:44.666Z,1.60
2018-02-14T02:07:10.905Z,1.30
2018-02-14T02:09:37.530Z,1.27
2018-02-14T02:12:03.697Z,1.30
2018-02-14T02:14:29.927Z,1.50
2018-02-14T02:16:56.234Z,1.30
2018-02-14T02:19:22.420Z,1.33
2018-02-14T02:21:48.623Z,1.53
2018-02-14T02:24:15.215Z,1.60
2018-02-14T02:26:41.740Z,1.50
2018-02-14T02:29:07.942Z,1.23
2018-02-14T02:31:34.572Z,1.70
2018-02-14T02:34:00.745Z,1.20
2018-02-14T02:36:27.267Z,1.57
2018-02-14T02:38:53.527Z,1.33
2018-02-14T02:41:19.683Z,1.70
2018-02-14T02:43:45.935Z,1.87
2018-02-14T02:46:12.113Z,1.77
2018-02-14T02:48:38.277Z,1.50
2018-02-14T02:51:04.844Z,1.20
2018-02-14T02:53:31.014Z,1.13
2018-02-14T02:55:57.216Z,1.33
2018-02-14T02:58:23.493Z,1.33
2018-02-14T03:00:49.664Z,1.37
2018-02-14T03:03:15.928Z,1.43
2018-02-14T03:05:42.196Z,1.70
2018-02-14T03:08:08.364Z,1.23
2018-02-14T03:10:34.524Z,1.90
2018-02-14T03:13:01.015Z,1.63
2018-02-14T03:15:27.222Z,1.20
2018-02-14T03:17:53.440Z,1.57
2018-02-14T03:20:20.044Z,1.50
2018-02-14T03:22:46.250Z,1.87
2018-02-14T03:25:12.450Z,1.50
2018-02-14T03:27:38.678Z,1.40
2018-02-14T03:30:04.838Z,1.67
2018-02-14T03:32:31.071Z,1.27
2018-02-14T03:34:57.295Z,1.40
2018-02-14T03:37:23.457Z,1.30
2018-02-14T03:39:49.640Z,1.63
2018-02-14T03:42:15.810Z,1.20
2018-02-14T03:44:42.372Z,1.87
2018-02-14T03:47:08.565Z,1.50
2018-02-14T03:49:34.749Z,1.33
2018-02-14T03:52:01.003Z,1.50
2018-02-14T03:56:58.910Z,1.40
2018-02-14T03:59:25.544Z,1.40
2018-02-14T04:01:52.016Z,1.37
2018-02-14T04:04:18.191Z,1.27
2018-02-14T04:06:45.222Z,1.40
2018-02-14T04:09:11.403Z,1.23
2018-02-14T04:11:37.608Z,1.30
2018-02-14T04:14:03.807Z,1.43
2018-02-14T04:16:29.967Z,1.60
2018-02-14T04:18:56.444Z,1.40
2018-02-14T04:21:22.628Z,1.50
2018-02-14T04:23:49.246Z,1.43
2018-02-14T04:26:15.457Z,1.67
2018-02-14T04:28:41.704Z,1.30
2018-02-14T04:31:08.260Z,1.27
2018-02-14T04:33:34.723Z,1.40
2018-02-14T04:36:00.901Z,1.50
2018-02-14T04:38:27.121Z,1.23
2018-02-14T04:40:53.607Z,1.50
2018-02-14T04:43:19.785Z,1.57
2018-02-14T04:45:46.061Z,1.30
2018-02-14T04:48:12.261Z,1.77
2018-02-14T04:50:38.728Z,1.30
2018-02-14T04:53:05.264Z,1.20
2018-02-14T04:55:31.467Z,1.43
2018-02-14T04:57:57.621Z,1.20
2018-02-14T05:00:24.208Z,1.43
2018-02-14T05:02:50.432Z,1.20
2018-02-14T05:05:16.600Z,1.30
2018-02-14T05:07:43.150Z,1.50
2018-02-14T05:10:09.318Z,1.50
2018-02-14T05:12:35.486Z,1.37
2018-02-14T05:15:01.924Z,1.20
2018-02-14T05:17:28.119Z,1.50
2018-02-14T05:19:54.442Z,1.47
2018-02-14T05:22:20.628Z,1.30
2018-02-14T05:24:46.807Z,1.10
2018-02-14T05:27:13.021Z,1.50
2018-02-14T05:29:39.206Z,1.60
2018-02-14T05:32:05.728Z,1.17
2018-02-14T05:34:31.889Z,1.73
2018-02-14T05:36:58.083Z,1.50
2018-02-14T05:39:24.926Z,1.70
2018-02-14T05:41:51.124Z,1.50
2018-02-14T05:44:17.592Z,1.60
2018-02-14T05:46:44.169Z,1.30
2018-02-14T05:49:10.365Z,1.10
2018-02-14T05:51:36.533Z,1.50
2018-02-14T05:54:03.207Z,1.30
2018-02-14T05:56:29.369Z,1.20
2018-02-14T05:58:55.529Z,1.43
2018-02-14T06:01:22.591Z,1.40
2018-02-14T06:03:49.049Z,1.67
2018-02-14T06:06:15.212Z,1.40
2018-02-14T06:08:41.454Z,1.43
2018-02-14T06:11:07.637Z,1.33
2018-02-14T06:13:33.803Z,1.20
2018-02-14T06:16:00.346Z,1.30
2018-02-14T06:18:26.529Z,1.30
2018-02-14T06:20:52.749Z,1.53
2018-02-14T06:23:18.985Z,1.50
2018-02-14T06:25:45.161Z,3.63
2018-02-14T06:28:11.331Z,3.70
2018-02-14T06:30:37.581Z,2.10
2018-02-14T06:33:03.855Z,1.90
2018-02-14T06:35:30.048Z,2.73
2018-02-14T06:37:56.596Z,2.20
2018-02-14T06:40:22.782Z,2.30
2018-02-14T06:42:48.984Z,3.23
2018-02-14T06:45:15.291Z,2.77
2018-02-14T06:47:41.494Z,2.33
2018-02-14T06:50:07.678Z,2.00
2018-02-14T06:52:33.875Z,2.00
2018-02-14T06:55:00.320Z,2.00
2018-02-14T06:57:26.790Z,1.90
2018-02-14T06:59:52.968Z,2.23
2018-02-14T07:02:19.205Z,3.23
2018-02-14T07:04:45.685Z,1.90
2018-02-14T07:07:11.889Z,2.10
2018-02-14T07:09:38.483Z,2.37
2018-02-14T07:12:04.672Z,3.90
2018-02-14T07:14:30.905Z,2.67
2018-02-14T07:16:57.163Z,2.60
2018-02-14T07:19:29.310Z,2.70
2018-02-14T07:21:55.569Z,2.30
2018-02-14T07:24:21.791Z,2.70
2018-02-14T07:26:47.968Z,3.17
2018-02-14T07:29:14.197Z,3.50
2018-02-14T07:31:40.389Z,2.23
2018-02-14T07:34:06.558Z,2.13
2018-02-14T07:36:32.820Z,3.00
2018-02-14T07:38:59.325Z,2.60
2018-02-14T07:41:25.855Z,2.70
2018-02-14T07:43:52.077Z,2.63
2018-02-14T07:46:18.262Z,2.47
2018-02-14T07:48:44.433Z,3.07
2018-02-14T07:51:10.636Z,2.40
2018-02-14T07:53:36.913Z,2.90
2018-02-14T07:56:03.211Z,2.10
2018-02-14T07:58:29.395Z,2.90
2018-02-14T08:00:55.662Z,2.17
2018-02-14T08:03:22.055Z,1.90
2018-02-14T08:05:48.543Z,2.70
2018-02-14T08:08:14.780Z,1.87
2018-02-14T08:10:41.317Z,2.37
2018-02-14T08:13:07.748Z,2.57
2018-02-14T08:15:33.974Z,2.40
2018-02-14T08:18:00.198Z,1.97
2018-02-14T08:20:26.441Z,2.27
2018-02-14T08:22:52.651Z,2.00
2018-02-14T08:25:18.899Z,1.90
2018-02-14T08:27:45.106Z,2.13
2018-02-14T08:30:11.319Z,1.70
2018-02-14T08:32:37.518Z,2.33
2018-02-14T08:35:03.776Z,1.57
2018-02-14T08:37:29.971Z,1.50
2018-02-14T08:39:56.155Z,2.20
2018-02-14T08:42:22.361Z,2.57
2018-02-14T08:44:48.530Z,2.30
2018-02-14T08:47:15.456Z,1.57
2018-02-14T08:49:41.625Z,2.00
2018-02-14T08:52:07.924Z,1.47
2018-02-14T08:54:34.142Z,1.63
2018-02-14T08:57:00.339Z,1.70
2018-02-14T08:59:26.515Z,1.60
2018-02-14T09:01:53.088Z,2.37
2018-02-14T09:04:19.293Z,1.80
2018-02-14T09:06:45.787Z,2.17
2018-02-14T09:09:12.032Z,1.83
2018-02-14T09:11:38.212Z,1.70
2018-02-14T09:14:04.404Z,2.10
2018-02-14T09:16:30.644Z,1.83
2018-02-14T09:18:56.827Z,1.23
2018-02-14T09:21:23.008Z,2.10
2018-02-14T09:23:49.628Z,2.10
2018-02-14T09:26:16.121Z,1.70
2018-02-14T09:28:42.664Z,2.00
2018-02-14T09:31:08.891Z,2.27
2018-02-14T09:33:35.064Z,1.50
2018-02-14T09:36:01.232Z,1.80
2018-02-14T09:38:27.472Z,2.20
2018-02-14T09:40:53.644Z,1.50
2018-02-14T09:43:19.805Z,2.20
2018-02-14T09:45:46.064Z,2.70
2018-02-14T09:48:12.257Z,1.70
2018-02-14T09:50:38.436Z,1.40
2018-02-14T09:53:05.353Z,1.67
2018-02-14T09:55:31.613Z,1.70
2018-02-14T09:57:57.801Z,1.87
2018-02-14T10:00:24.038Z,1.93
2018-02-14T10:02:50.238Z,1.83
2018-02-14T10:05:16.421Z,1.73
2018-02-14T10:07:43.228Z,2.07
2018-02-14T10:10:09.469Z,1.57
2018-02-14T10:12:35.633Z,1.33
2018-02-14T10:15:02.303Z,1.53
2018-02-14T10:17:28.501Z,1.60
2018-02-14T10:19:54.742Z,1.67
2018-02-14T10:22:20.982Z,1.40
2018-02-14T10:24:47.441Z,1.57
2018-02-14T10:27:13.616Z,1.53
2018-02-14T10:29:39.910Z,2.10
2018-02-14T10:32:06.436Z,1.53
2018-02-14T10:34:32.622Z,1.87
2018-02-14T10:36:58.868Z,1.70
2018-02-14T10:39:25.038Z,1.43
2018-02-14T10:41:51.242Z,1.20
2018-02-14T10:44:17.749Z,1.70
2018-02-14T10:46:43.921Z,1.63
2018-02-14T10:49:10.332Z,1.37
2018-02-14T10:51:37.794Z,1.70
2018-02-14T10:54:04.028Z,1.87
2018-02-14T10:56:30.247Z,1.67
2018-02-14T10:58:56.491Z,1.60
2018-02-14T11:01:28.754Z,1.50
2018-02-14T11:03:54.974Z,2.10
2018-02-14T11:06:27.285Z,1.87
2018-02-14T11:08:53.468Z,1.80
2018-02-14T11:11:19.679Z,1.70
2018-02-14T11:13:45.922Z,1.60
2018-02-14T11:16:12.092Z,1.90
2018-02-14T11:18:38.305Z,3.00
2018-02-14T11:21:04.539Z,1.97
2018-02-14T11:23:30.903Z,2.20
2018-02-14T11:25:57.155Z,2.03
2018-02-14T11:28:23.385Z,2.07
2018-02-14T11:30:49.590Z,2.47
2018-02-14T11:33:15.847Z,1.50
2018-02-14T11:35:42.391Z,2.10
2018-02-14T11:38:08.677Z,2.07
2018-02-14T11:40:34.919Z,2.37
2018-02-14T11:43:01.092Z,2.93
2018-02-14T11:45:27.609Z,3.23
2018-02-14T11:47:53.828Z,2.43
2018-02-14T11:50:20.033Z,2.63
2018-02-14T11:52:46.238Z,2.90
2018-02-14T11:55:12.796Z,2.80
2018-02-14T11:57:38.975Z,2.83
2018-02-14T12:00:05.174Z,2.50
2018-02-14T12:02:31.414Z,2.43
2018-02-14T12:04:57.616Z,2.60
2018-02-14T12:07:23.785Z,2.23
2018-02-14T12:09:49.985Z,3.00
2018-02-14T12:12:16.156Z,3.57
2018-02-14T12:14:42.400Z,2.50
2018-02-14T12:17:08.610Z,2.37
2018-02-14T12:19:34.863Z,2.17
2018-02-14T12:22:01.051Z,2.37
2018-02-14T12:24:27.280Z,2.27
2018-02-14T12:26:53.513Z,2.60
2018-02-14T12:29:19.686Z,2.10
2018-02-14T12:31:45.865Z,2.57
2018-02-14T12:34:12.168Z,2.40
2018-02-14T12:36:38.400Z,2.00
2018-02-14T12:39:05.043Z,2.50
2018-02-14T12:41:31.578Z,2.80
2018-02-14T12:43:57.788Z,2.30
2018-02-14T12:46:24.345Z,2.30
2018-02-14T12:48:50.590Z,2.20
2018-02-14T12:51:16.801Z,2.23
2018-02-14T12:53:42.961Z,2.17
2018-02-14T12:56:09.218Z,2.37
2018-02-14T12:58:35.637Z,1.90
2018-02-14T13:01:01.838Z,2.60
2018-02-14T13:03:28.069Z,2.60
2018-02-14T13:05:54.233Z,1.87
2018-02-14T13:08:20.702Z,2.20
2018-02-14T13:10:47.240Z,2.10
2018-02-14T13:13:13.426Z,1.90
2018-02-14T13:15:39.620Z,2.30
2018-02-14T13:18:06.203Z,1.97
2018-02-14T13:20:32.645Z,2.20
2018-02-14T13:22:58.824Z,2.27
2018-02-14T13:25:25.319Z,2.60
2018-02-14T13:27:51.500Z,1.70
2018-02-14T13:30:17.694Z,2.07
2018-02-14T13:32:43.920Z,2.47
2018-02-14T13:35:10.110Z,1.67
2018-02-14T13:37:36.668Z,2.00
2018-02-14T13:40:03.206Z,2.10
2018-02-14T13:42:29.382Z,2.07
2018-02-14T13:44:55.867Z,2.30
2018-02-14T13:47:22.090Z,2.03
2018-02-14T13:49:48.298Z,2.03
2018-02-14T13:52:14.523Z,2.13
2018-02-14T13:54:40.748Z,1.80
2018-02-14T13:57:06.935Z,2.20
2018-02-14T13:59:33.504Z,2.40
2018-02-14T14:01:59.763Z,1.90
2018-02-14T14:04:25.949Z,1.97
2018-02-14T14:06:52.498Z,2.07
2018-02-14T14:09:18.735Z,2.10
2018-02-14T14:11:45.157Z,2.43
2018-02-14T14:14:11.427Z,2.53
2018-02-14T14:16:37.953Z,1.90
2018-02-14T14:19:04.172Z,2.40
2018-02-14T14:21:30.408Z,2.00
2018-02-14T14:23:56.569Z,1.80
2018-02-14T14:26:22.892Z,1.70
2018-02-14T14:28:49.056Z,2.13
2018-02-14T14:31:15.231Z,1.60
2018-02-14T14:33:41.797Z,1.80
2018-02-14T14:36:07.989Z,2.00
2018-02-14T14:38:34.215Z,2.03
2018-02-14T14:41:00.485Z,1.90
2018-02-14T14:43:26.667Z,2.00
2018-02-14T14:45:52.865Z,1.93
2018-02-14T14:48:19.402Z,1.80
2018-02-14T14:50:45.592Z,1.80
2018-02-14T14:53:11.768Z,1.87
2018-02-14T14:55:38.011Z,1.60
2018-02-14T14:58:04.247Z,1.80
2018-02-14T15:00:30.434Z,1.63
2018-02-14T15:02:57.315Z,1.70
2018-02-14T15:05:23.753Z,1.77
2018-02-14T15:07:49.969Z,1.80
2018-02-14T15:10:16.212Z,1.63
2018-02-14T15:12:42.530Z,2.20
2018-02-14T15:15:08.742Z,1.70
2018-02-14T15:17:35.001Z,2.20
2018-02-14T15:20:01.261Z,1.47
2018-02-14T15:22:27.449Z,1.93
2018-02-14T15:24:53.705Z,1.93
2018-02-14T15:27:19.942Z,2.03
2018-02-14T15:29:46.169Z,2.57
2018-02-14T15:32:12.454Z,2.37
2018-02-14T15:34:38.678Z,1.97
2018-02-14T15:37:04.861Z,2.43
2018-02-14T15:39:31.090Z,1.90
2018-02-14T15:41:57.313Z,2.27
2018-02-14T15:44:23.572Z,2.20
2018-02-14T15:46:49.764Z,2.10
2018-02-14T15:49:15.961Z,1.83
2018-02-14T15:51:42.495Z,1.90
2018-02-14T15:54:08.677Z,2.50
2018-02-14T15:56:34.898Z,2.10
2018-02-14T15:59:01.562Z,2.20
2018-02-14T16:01:27.754Z,1.50
2018-02-14T16:03:53.920Z,1.90
2018-02-14T16:06:20.185Z,2.20
2018-02-14T16:08:46.368Z,1.80
2018-02-14T16:11:12.555Z,1.80
2018-02-14T16:13:39.092Z,1.87
2018-02-14T16:16:05.603Z,2.80
2018-02-14T16:18:31.805Z,2.20
2018-02-14T16:20:58.005Z,2.03
2018-02-14T16:23:24.213Z,2.37
2018-02-14T16:25:50.472Z,2.20
2018-02-14T16:28:16.692Z,2.00
2018-02-14T16:30:42.889Z,2.00
2018-02-14T16:33:09.153Z,1.80
2018-02-14T16:35:35.369Z,2.20
2018-02-14T16:38:01.560Z,1.87
2018-02-14T16:40:27.769Z,1.90
2018-02-14T16:42:53.984Z,2.07
2018-02-14T16:45:20.537Z,1.70
2018-02-14T16:47:46.769Z,2.00
2018-02-14T16:50:12.942Z,2.00
2018-02-14T16:52:39.220Z,1.97
2018-02-14T16:55:05.446Z,2.33
2018-02-14T16:57:31.895Z,2.17
2018-02-14T16:59:58.415Z,2.03
2018-02-14T17:02:24.608Z,1.90
2018-02-14T17:04:50.858Z,2.00
2018-02-14T17:07:17.023Z,2.00
2018-02-14T17:09:43.213Z,1.73
2018-02-14T17:12:09.453Z,2.07
2018-02-14T17:14:35.988Z,2.40
2018-02-14T17:17:02.196Z,1.67
2018-02-14T17:19:28.826Z,2.07
2018-02-14T17:21:55.033Z,1.50
2018-02-14T17:24:21.221Z,2.10
2018-02-14T17:26:47.598Z,2.07
2018-02-14T17:29:13.774Z,1.97
2018-02-14T17:31:40.302Z,1.83
2018-02-14T17:34:06.889Z,1.90
2018-02-14T17:36:33.073Z,1.37
2018-02-14T17:38:59.267Z,2.00
2018-02-14T17:41:25.503Z,2.07
2018-02-14T17:43:51.679Z,2.47
2018-02-14T17:46:17.941Z,2.00
2018-02-14T17:48:44.181Z,2.00
2018-02-14T17:51:10.348Z,2.07
2018-02-14T17:53:36.798Z,1.50
2018-02-14T17:56:03.769Z,1.80
2018-02-14T17:58:30.084Z,1.80
2018-02-14T18:00:56.427Z,1.80
2018-02-14T18:03:23.264Z,2.57
2018-02-14T18:05:49.992Z,1.93
2018-02-14T18:08:16.593Z,1.90
2018-02-14T18:10:42.831Z,1.90
2018-02-14T18:13:09.240Z,1.83
2018-02-14T18:15:35.499Z,1.90
2018-02-14T18:18:01.918Z,1.73
2018-02-14T18:20:28.094Z,1.60
2018-02-14T18:22:54.346Z,2.10
2018-02-14T18:25:20.805Z,1.83
2018-02-14T18:27:47.587Z,1.60
2018-02-14T18:30:14.205Z,2.20
2018-02-14T18:32:40.388Z,2.53
2018-02-14T18:35:07.121Z,1.87
2018-02-14T18:37:33.412Z,1.73
2018-02-14T18:39:59.636Z,2.10
2018-02-14T18:42:25.855Z,1.77
2018-02-14T18:44:52.186Z,1.87
2018-02-14T18:47:18.519Z,2.27
2018-02-14T18:49:44.728Z,1.70
2018-02-14T18:52:11.311Z,1.80
2018-02-14T18:54:37.530Z,2.00
2018-02-14T18:57:03.858Z,2.23
2018-02-14T18:59:30.169Z,2.03
2018-02-14T19:01:56.917Z,1.63
2018-02-14T19:04:23.118Z,1.90
2018-02-14T19:06:49.370Z,2.47
2018-02-14T19:09:15.596Z,2.60
2018-02-14T19:11:47.873Z,2.47
2018-02-14T19:14:14.165Z,1.70
2018-02-14T19:16:40.363Z,2.03
2018-02-14T19:19:06.639Z,1.93
2018-02-14T19:21:33.885Z,2.10
2018-02-14T19:24:01.031Z,2.20
2018-02-14T19:28:59.907Z,2.10
2018-02-14T19:31:26.139Z,2.07
2018-02-14T19:33:52.434Z,1.93
2018-02-14T19:36:18.692Z,1.73
2018-02-14T19:38:45.737Z,1.90
2018-02-14T19:41:12.048Z,1.93
2018-02-14T19:43:38.390Z,1.40
2018-02-14T19:46:04.608Z,1.90
2018-02-14T19:48:30.815Z,2.13
2018-02-14T19:50:58.072Z,2.60
2018-02-14T19:53:24.368Z,2.83
2018-02-14T19:55:50.584Z,2.10
2018-02-14T19:58:17.357Z,2.40
2018-02-14T20:00:43.576Z,1.80
2018-02-14T20:03:09.853Z,2.30
2018-02-14T20:05:36.221Z,2.20
2018-02-14T20:08:02.509Z,2.30
2018-02-14T20:10:28.745Z,2.50
2018-02-14T20:12:55.087Z,1.77
2018-02-14T20:15:21.302Z,2.27
2018-02-14T20:17:47.519Z,1.97
2018-02-14T20:20:14.158Z,2.23
2018-02-14T20:22:40.394Z,2.40
2018-02-14T20:25:06.637Z,2.37
2018-02-14T20:27:33.688Z,2.47
2018-02-14T20:29:59.992Z,2.40
2018-02-14T20:32:26.601Z,2.40
2018-02-14T20:34:52.900Z,2.10
2018-02-14T20:37:19.110Z,2.47
2018-02-14T20:39:45.688Z,1.90
2018-02-14T20:42:11.890Z,1.83
2018-02-14T20:44:38.110Z,2.20
2018-02-14T20:47:04.381Z,2.17
2018-02-14T20:49:30.585Z,2.20
2018-02-14T20:51:56.777Z,1.87
2018-02-14T20:54:23.432Z,2.20
2018-02-14T20:56:49.988Z,2.40
2018-02-14T20:59:16.190Z,2.10
2018-02-14T21:01:42.443Z,1.70
2018-02-14T21:04:08.650Z,2.43
2018-02-14T21:06:34.890Z,2.17
2018-02-14T21:09:01.102Z,2.03
2018-02-14T21:11:27.278Z,2.03
2018-02-14T21:13:53.813Z,1.87
2018-02-14T21:16:20.323Z,2.03
2018-02-14T21:18:46.570Z,2.00
2018-02-14T21:21:12.784Z,2.20
2018-02-14T21:23:38.998Z,1.97
2018-02-14T21:26:05.263Z,2.30
2018-02-14T21:28:31.449Z,2.30
2018-02-14T21:30:57.654Z,1.90
2018-02-14T21:33:23.921Z,2.20
2018-02-14T21:35:50.136Z,2.17
2018-02-14T21:38:16.328Z,2.20
2018-02-14T21:40:42.583Z,1.80
2018-02-14T21:43:08.807Z,2.23
2018-02-14T21:45:35.008Z,1.90
2018-02-14T21:48:01.472Z,1.93
2018-02-14T21:50:27.653Z,2.13
2018-02-14T21:52:54.158Z,1.67
2018-02-14T21:55:20.367Z,1.83
2018-02-14T21:57:46.834Z,2.40
2018-02-14T22:00:13.139Z,2.30
2018-02-14T22:02:39.441Z,1.90
2018-02-14T22:05:05.626Z,2.30
2018-02-14T22:07:31.831Z,2.07
2018-02-14T22:09:58.117Z,1.97
2018-02-14T22:12:24.340Z,2.07
2018-02-14T22:14:50.575Z,1.93
2018-02-14T22:17:16.777Z,1.87
2018-02-14T22:19:42.998Z,1.80
2018-02-14T22:22:11.056Z,2.20
2018-02-14T22:24:38.138Z,2.30
2018-02-14T22:29:49.860Z,2.30
2018-02-14T22:32:16.064Z,2.27
2018-02-14T22:34:42.311Z,1.63
2018-02-14T22:37:08.504Z,2.23
2018-02-14T22:39:34.695Z,2.10
2018-02-14T22:42:00.923Z,1.67
2018-02-14T22:44:27.113Z,2.13
2018-02-14T22:46:53.312Z,2.00
2018-02-14T22:49:19.780Z,2.10
2018-02-14T22:51:45.975Z,1.93
2018-02-14T22:54:12.163Z,1.50
2018-02-14T22:56:38.414Z,1.90
2018-02-14T22:59:04.946Z,1.70
2018-02-14T23:01:31.146Z,1.90
2018-02-14T23:03:57.431Z,2.63
2018-02-14T23:06:23.637Z,1.67
2018-02-14T23:08:49.911Z,2.20
2018-02-14T23:11:16.140Z,2.20
2018-02-14T23:13:42.364Z,1.80
2018-02-14T23:16:08.574Z,1.97
2018-02-14T23:18:34.822Z,1.80
2018-02-14T23:21:01.017Z,2.05
2018-02-14T23:23:27.203Z,2.20
2018-02-14T23:25:53.416Z,2.30
2018-02-14T23:28:19.651Z,2.30
2018-02-14T23:30:45.892Z,2.57
2018-02-14T23:33:12.103Z,2.80
2018-02-14T23:35:40.691Z,2.37
2018-02-14T23:38:06.874Z,2.10
2018-02-14T23:40:33.127Z,1.90
2018-02-14T23:42:59.344Z,2.03
2018-02-14T23:45:25.575Z,2.00
2018-02-14T23:47:51.810Z,2.33
2018-02-14T23:50:17.990Z,1.90
2018-02-14T23:52:44.421Z,1.90
2018-02-14T23:55:10.652Z,1.90
2018-02-14T23:57:36.850Z,2.30
